Time;durP1;ratioP1;P1;durP2;ratioP2;P2;SDS_P1;SDS_P2;PMS_P1;PMS_P2;Temp;Humidity;BMP_temperature;BMP_pressure;BME280_temperature;BME280_humidity;BME280_pressure;Samples;Min_cycle;Max_cycle;Signal;HPM_P1;HPM_P2
2023/05/26 00:00:12;;;;;;;20.33;4.63;;;9.90;99.90;;;;;;4975391;28;20122;-65
2023/05/26 00:02:39;;;;;;;22.02;5.28;;;9.90;99.90;;;;;;4975414;28;20418;-65
2023/05/26 00:05:08;;;;;;;21.45;4.20;;;9.90;99.90;;;;;;4975053;28;20082;-65
2023/05/26 00:07:38;;;;;;;17.88;4.82;;;9.90;99.90;;;;;;4975058;28;20487;-65
2023/05/26 00:10:04;;;;;;;27.83;5.95;;;9.90;99.90;;;;;;4975053;28;20081;-65
2023/05/26 00:12:30;;;;;;;19.75;4.45;;;9.90;99.90;;;;;;4975275;28;20066;-66
2023/05/26 00:14:55;;;;;;;22.77;5.55;;;9.90;99.90;;;;;;4975149;28;20093;-66
2023/05/26 00:17:21;;;;;;;18.88;5.85;;;9.90;99.90;;;;;;4974925;28;20051;-66
2023/05/26 00:19:49;;;;;;;20.55;4.88;;;9.90;99.90;;;;;;4974672;28;20078;-65
2023/05/26 00:22:15;;;;;;;22.13;5.25;;;9.80;99.90;;;;;;4975176;28;20097;-65
2023/05/26 00:24:41;;;;;;;22.83;5.25;;;9.80;99.90;;;;;;4974974;28;20043;-66
2023/05/26 00:27:07;;;;;;;19.77;6.43;;;9.80;99.90;;;;;;4974343;28;20314;-65
2023/05/26 00:29:34;;;;;;;19.35;4.60;;;9.80;99.90;;;;;;4974700;28;20090;-66
2023/05/26 00:31:59;;;;;;;23.25;5.55;;;9.70;99.90;;;;;;4974774;28;20081;-66
2023/05/26 00:34:25;;;;;;;21.50;4.90;;;9.70;99.90;;;;;;4974594;28;20074;-66
2023/05/26 00:36:50;;;;;;;20.08;4.53;;;9.60;99.90;;;;;;4974832;28;20078;-66
2023/05/26 00:39:16;;;;;;;20.23;4.82;;;9.60;99.90;;;;;;4974607;28;20043;-65
2023/05/26 00:41:42;;;;;;;18.02;4.93;;;9.60;99.90;;;;;;4974678;28;20053;-65
2023/05/26 00:44:07;;;;;;;22.38;4.40;;;9.60;99.90;;;;;;4974516;28;20125;-65
2023/05/26 00:46:33;;;;;;;20.77;5.55;;;9.60;99.90;;;;;;4974387;28;20039;-66
2023/05/26 00:48:58;;;;;;;22.90;4.47;;;9.50;99.90;;;;;;4974105;28;20070;-65
2023/05/26 00:51:24;;;;;;;17.50;4.72;;;9.50;99.90;;;;;;4974439;28;20042;-66
2023/05/26 00:53:50;;;;;;;24.40;6.40;;;9.40;99.90;;;;;;4974506;28;20183;-66
2023/05/26 00:56:16;;;;;;;22.75;4.40;;;9.40;99.90;;;;;;4974313;28;20053;-66
2023/05/26 00:58:42;;;;;;;21.20;5.57;;;9.30;99.90;;;;;;4974251;28;20034;-66
2023/05/26 01:01:09;;;;;;;17.90;4.70;;;9.40;99.90;;;;;;4974288;28;20035;-65
2023/05/26 01:03:37;;;;;;;23.55;4.93;;;9.30;99.90;;;;;;4973969;28;20035;-66
2023/05/26 01:06:02;;;;;;;30.92;6.30;;;9.30;99.90;;;;;;4973924;28;20035;-65
2023/05/26 01:08:29;;;;;;;23.77;6.47;;;9.30;99.90;;;;;;4974113;28;20038;-65
2023/05/26 01:11:00;;;;;;;24.13;5.63;;;9.30;99.90;;;;;;4973883;28;20081;-65
2023/05/26 01:13:30;;;;;;;24.13;5.93;;;9.30;99.90;;;;;;4974032;28;20093;-65
2023/05/26 01:16:02;;;;;;;24.35;5.35;;;9.30;99.90;;;;;;4973864;28;20042;-66
2023/05/26 01:18:42;;;;;;;24.10;5.53;;;9.30;99.90;;;;;;4973784;28;20054;-65
2023/05/26 01:21:13;;;;;;;21.00;5.47;;;9.30;99.90;;;;;;4973849;28;20659;-65
2023/05/26 01:23:48;;;;;;;27.38;6.38;;;9.20;99.90;;;;;;4973853;28;20039;-65
2023/05/26 01:26:55;;;;;;;28.77;5.47;;;9.20;99.90;;;;;;4973630;28;20074;-65
2023/05/26 01:29:22;;;;;;;26.88;5.68;;;9.20;99.90;;;;;;4951717;28;20074;-65
2023/05/26 01:31:48;;;;;;;20.73;5.22;;;9.20;99.90;;;;;;4973726;28;20041;-65
2023/05/26 01:34:13;;;;;;;19.48;4.68;;;9.10;99.90;;;;;;4973583;28;20117;-66
2023/05/26 01:36:39;;;;;;;21.60;6.13;;;9.10;99.90;;;;;;4973498;28;20450;-66
2023/05/26 01:39:07;;;;;;;17.95;4.60;;;9.10;99.90;;;;;;4973262;28;20035;-65
2023/05/26 01:41:48;;;;;;;24.35;5.40;;;9.10;99.90;;;;;;4973755;28;20054;-65
2023/05/26 01:44:26;;;;;;;24.33;5.45;;;9.10;99.90;;;;;;4973522;28;20097;-65
2023/05/26 01:46:52;;;;;;;23.58;5.20;;;9.00;99.90;;;;;;4973398;28;20041;-65
2023/05/26 01:49:27;;;;;;;26.38;5.13;;;8.90;99.90;;;;;;4973116;28;20043;-65
2023/05/26 01:51:59;;;;;;;21.38;4.78;;;9.00;99.90;;;;;;4973561;28;20034;-65
2023/05/26 01:54:27;;;;;;;24.95;5.05;;;9.00;99.90;;;;;;4973041;28;20042;-65
2023/05/26 01:56:54;;;;;;;23.35;5.60;;;9.00;99.90;;;;;;4973228;28;20046;-66
2023/05/26 01:59:24;;;;;;;18.65;5.00;;;9.00;99.90;;;;;;4973031;28;20546;-66
2023/05/26 02:01:50;;;;;;;27.60;6.15;;;9.00;99.90;;;;;;4973119;28;20043;-65
2023/05/26 02:04:16;;;;;;;18.30;4.25;;;9.00;99.90;;;;;;4973271;28;20039;-65
2023/05/26 02:06:41;;;;;;;24.08;4.90;;;9.00;99.90;;;;;;4973188;28;20031;-66
2023/05/26 02:09:07;;;;;;;23.02;4.65;;;9.00;99.90;;;;;;4972742;28;20625;-65
2023/05/26 02:11:33;;;;;;;20.23;5.10;;;8.90;99.90;;;;;;4973200;28;20121;-65
2023/05/26 02:13:58;;;;;;;21.88;5.38;;;8.90;99.90;;;;;;4973073;28;20039;-65
2023/05/26 02:16:25;;;;;;;23.05;7.32;;;9.00;99.90;;;;;;4972783;28;20117;-66
2023/05/26 02:18:50;;;;;;;22.55;5.45;;;9.00;99.90;;;;;;4972941;28;20038;-65
2023/05/26 02:21:16;;;;;;;21.02;5.88;;;9.00;99.90;;;;;;4973106;28;20078;-65
2023/05/26 02:23:43;;;;;;;16.75;4.97;;;9.00;99.90;;;;;;4972805;28;20506;-65
2023/05/26 02:26:09;;;;;;;24.60;4.82;;;9.00;99.90;;;;;;4972836;28;20039;-65
2023/05/26 02:28:35;;;;;;;21.80;5.35;;;9.00;99.90;;;;;;4972775;28;20101;-65
2023/05/26 02:31:00;;;;;;;18.15;4.18;;;9.00;99.90;;;;;;4972713;28;20118;-65
2023/05/26 02:33:26;;;;;;;18.45;4.82;;;9.00;99.90;;;;;;4972982;28;20046;-65
2023/05/26 02:35:52;;;;;;;13.57;4.00;;;9.00;99.90;;;;;;4972868;28;20045;-66
2023/05/26 02:38:17;;;;;;;17.80;4.10;;;9.00;99.90;;;;;;4972757;28;20038;-65
2023/05/26 02:40:43;;;;;;;23.52;5.20;;;9.00;99.90;;;;;;4972790;28;20122;-65
2023/05/26 02:43:08;;;;;;;25.92;4.97;;;8.90;99.90;;;;;;4972710;28;20146;-65
2023/05/26 02:45:34;;;;;;;21.27;5.30;;;8.90;99.90;;;;;;4972557;28;20518;-65
2023/05/26 02:47:59;;;;;;;19.88;5.55;;;8.90;99.90;;;;;;4972729;28;20117;-65
2023/05/26 02:50:25;;;;;;;25.13;5.63;;;8.80;99.90;;;;;;4972812;28;20158;-65
2023/05/26 02:52:51;;;;;;;18.90;5.50;;;8.70;99.90;;;;;;4972771;28;20039;-65
2023/05/26 02:55:16;;;;;;;23.70;6.25;;;8.80;99.90;;;;;;4972762;28;20047;-65
2023/05/26 02:57:42;;;;;;;20.75;6.13;;;8.70;99.90;;;;;;4972423;28;20047;-66
2023/05/26 03:00:10;;;;;;;19.40;5.47;;;8.80;99.90;;;;;;4971270;28;20203;-65
2023/05/26 03:02:37;;;;;;;26.88;8.00;;;8.70;99.90;;;;;;4972710;28;20086;-65
2023/05/26 03:05:04;;;;;;;26.45;6.43;;;8.80;99.90;;;;;;4972633;28;20035;-65
2023/05/26 03:07:29;;;;;;;21.38;6.97;;;8.80;99.90;;;;;;4975866;28;20053;-65
2023/05/26 03:09:55;;;;;;;22.98;6.28;;;8.80;99.90;;;;;;4976035;28;20039;-65
2023/05/26 03:12:20;;;;;;;22.17;6.85;;;8.80;99.90;;;;;;4976262;28;20418;-65
2023/05/26 03:14:46;;;;;;;20.85;5.63;;;8.80;99.90;;;;;;4976060;28;20456;-65
2023/05/26 03:17:11;;;;;;;17.02;4.97;;;8.80;99.90;;;;;;4976203;28;20380;-65
2023/05/26 03:19:37;;;;;;;17.65;4.78;;;8.80;99.90;;;;;;4976051;28;20042;-65
2023/05/26 03:22:02;;;;;;;24.10;5.38;;;8.80;99.90;;;;;;4976165;28;20039;-65
2023/05/26 03:24:28;;;;;;;29.80;5.88;;;8.90;99.90;;;;;;4975934;28;20046;-65
2023/05/26 03:26:54;;;;;;;18.23;6.10;;;8.90;99.90;;;;;;4975894;28;20038;-65
2023/05/26 03:29:19;;;;;;;23.65;5.18;;;8.90;99.90;;;;;;4975497;28;20085;-65
2023/05/26 03:31:45;;;;;;;14.68;3.95;;;8.80;99.90;;;;;;4974552;28;20039;-66
2023/05/26 03:34:10;;;;;;;21.85;6.32;;;8.80;99.90;;;;;;4974574;28;20387;-65
2023/05/26 03:36:39;;;;;;;20.02;5.53;;;8.80;99.90;;;;;;4975752;28;20455;-65
2023/05/26 03:39:06;;;;;;;24.40;5.03;;;8.80;99.90;;;;;;4975624;28;20126;-65
2023/05/26 03:41:33;;;;;;;19.63;5.38;;;8.70;99.90;;;;;;4975656;28;20042;-65
2023/05/26 03:43:58;;;;;;;17.35;3.70;;;8.80;99.90;;;;;;4975439;28;20078;-65
2023/05/26 03:46:24;;;;;;;19.00;5.40;;;8.80;99.90;;;;;;4975333;28;20128;-66
2023/05/26 03:48:50;;;;;;;19.98;4.28;;;8.80;99.90;;;;;;4975455;28;20039;-65
2023/05/26 03:51:15;;;;;;;17.95;4.97;;;8.80;99.90;;;;;;4975632;28;20596;-65
2023/05/26 03:53:41;;;;;;;14.43;4.43;;;8.70;99.90;;;;;;4975361;28;20112;-65
2023/05/26 03:56:07;;;;;;;18.58;5.07;;;8.70;99.90;;;;;;4975250;28;20035;-65
2023/05/26 03:58:33;;;;;;;19.27;5.97;;;8.70;99.90;;;;;;4975059;28;20392;-66
2023/05/26 04:00:59;;;;;;;20.60;5.65;;;8.70;99.90;;;;;;4975387;28;20047;-65
2023/05/26 04:03:26;;;;;;;21.40;5.85;;;8.70;99.90;;;;;;4975317;28;20426;-65
2023/05/26 04:05:52;;;;;;;16.17;4.93;;;8.70;99.90;;;;;;4974112;28;20057;-65
2023/05/26 04:08:17;;;;;;;26.25;6.97;;;8.70;99.90;;;;;;4975094;28;20538;-65
2023/05/26 04:10:43;;;;;;;16.85;4.78;;;8.70;99.90;;;;;;4974985;28;20105;-65
2023/05/26 04:13:09;;;;;;;14.98;5.53;;;8.80;99.90;;;;;;4974976;28;20388;-65
2023/05/26 04:15:34;;;;;;;19.45;5.95;;;8.80;99.90;;;;;;4970722;28;20127;-66
2023/05/26 04:18:00;;;;;;;18.23;5.22;;;8.80;99.90;;;;;;4974657;28;20045;-65
2023/05/26 04:20:26;;;;;;;14.80;4.55;;;8.70;99.90;;;;;;4968886;28;20057;-65
2023/05/26 04:22:51;;;;;;;14.80;5.22;;;8.70;99.90;;;;;;4974887;28;20038;-65
2023/05/26 04:25:17;;;;;;;18.05;4.88;;;8.80;99.90;;;;;;4974874;28;20070;-65
2023/05/26 04:27:42;;;;;;;24.80;4.97;;;8.80;99.90;;;;;;4974488;28;20518;-65
2023/05/26 04:30:09;;;;;;;22.30;5.10;;;8.90;99.90;;;;;;4974657;28;20038;-65
2023/05/26 04:32:35;;;;;;;19.58;5.22;;;8.90;99.90;;;;;;4974687;28;20432;-65
2023/05/26 04:35:01;;;;;;;24.10;4.82;;;9.00;99.90;;;;;;4974808;28;20085;-65
2023/05/26 04:37:27;;;;;;;16.83;4.65;;;9.00;99.90;;;;;;4974575;28;20043;-65
2023/05/26 04:39:53;;;;;;;21.33;4.97;;;9.10;99.90;;;;;;4974310;28;20464;-66
2023/05/26 04:42:19;;;;;;;17.45;5.22;;;9.20;99.90;;;;;;4974339;28;20046;-65
2023/05/26 04:44:45;;;;;;;15.63;4.90;;;9.30;99.90;;;;;;4974474;28;20053;-65
2023/05/26 04:47:11;;;;;;;14.05;4.68;;;9.30;99.90;;;;;;4974380;28;20082;-65
2023/05/26 04:49:37;;;;;;;17.35;4.72;;;9.40;99.90;;;;;;4974170;28;20503;-65
2023/05/26 04:52:03;;;;;;;22.48;5.28;;;9.50;99.90;;;;;;4974425;28;20081;-65
2023/05/26 04:54:29;;;;;;;17.92;4.95;;;9.50;99.90;;;;;;4974294;28;20034;-65
2023/05/26 04:56:55;;;;;;;21.67;6.57;;;9.60;99.90;;;;;;4973997;28;20035;-65
2023/05/26 04:59:24;;;;;;;12.80;4.13;;;9.70;99.90;;;;;;4973881;28;20146;-65
2023/05/26 05:01:50;;;;;;;17.52;5.28;;;9.80;99.90;;;;;;4974280;28;20043;-65
2023/05/26 05:04:16;;;;;;;19.33;4.82;;;9.90;99.90;;;;;;4974110;28;20247;-65
2023/05/26 05:06:42;;;;;;;26.17;5.85;;;9.90;99.90;;;;;;4973938;28;20045;-65
2023/05/26 05:09:08;;;;;;;14.65;5.47;;;9.90;99.90;;;;;;4998758;23;20493;-68
2023/05/26 05:11:34;;;;;;;18.85;4.68;;;10.00;99.90;;;;;;5009066;28;20038;-70
2023/05/26 05:13:59;;;;;;;23.23;5.32;;;10.00;99.90;;;;;;5012808;28;20042;-70
2023/05/26 05:16:25;;;;;;;18.63;5.65;;;10.00;99.90;;;;;;5012948;28;20042;-69
2023/05/26 05:18:50;;;;;;;22.00;4.47;;;10.10;99.90;;;;;;5012896;28;20033;-69
2023/05/26 05:21:16;;;;;;;18.40;4.82;;;10.20;99.90;;;;;;5011256;28;20041;-69
2023/05/26 05:23:42;;;;;;;25.63;5.40;;;10.30;99.90;;;;;;5012665;28;20046;-70
2023/05/26 05:26:07;;;;;;;18.08;4.15;;;10.40;99.90;;;;;;5012680;28;20081;-70
2023/05/26 05:28:33;;;;;;;20.17;4.97;;;10.50;99.90;;;;;;5012109;28;20038;-69
2023/05/26 05:30:58;;;;;;;21.58;5.68;;;10.70;99.90;;;;;;5011729;28;20080;-70
2023/05/26 05:33:25;;;;;;;17.02;4.55;;;10.80;99.90;;;;;;5012782;28;20497;-70
2023/05/26 05:35:50;;;;;;;19.90;4.65;;;11.10;99.90;;;;;;5012575;28;20045;-70
2023/05/26 05:38:16;;;;;;;21.80;5.75;;;11.20;99.90;;;;;;5012415;28;20124;-70
2023/05/26 05:40:41;;;;;;;17.33;4.38;;;11.30;99.90;;;;;;5012537;28;20096;-69
2023/05/26 05:43:07;;;;;;;29.83;4.97;;;11.30;99.90;;;;;;5012598;28;20087;-70
2023/05/26 05:45:33;;;;;;;18.38;4.82;;;11.30;99.90;;;;;;5012467;28;20052;-69
2023/05/26 05:47:58;;;;;;;21.58;5.28;;;11.30;99.90;;;;;;5012541;28;20037;-69
2023/05/26 05:50:24;;;;;;;25.95;4.80;;;11.20;99.90;;;;;;5011195;28;20034;-70
2023/05/26 05:52:49;;;;;;;27.70;4.60;;;11.30;99.90;;;;;;5012542;28;20046;-70
2023/05/26 05:55:15;;;;;;;25.10;4.47;;;11.20;99.90;;;;;;5011075;28;20053;-70
2023/05/26 05:57:41;;;;;;;19.23;5.30;;;11.20;99.90;;;;;;5012371;28;20045;-69
2023/05/26 06:00:09;;;;;;;18.50;4.22;;;11.20;99.90;;;;;;5012453;28;20084;-69
2023/05/26 06:02:35;;;;;;;18.13;4.90;;;11.20;99.90;;;;;;5012337;28;20045;-70
2023/05/26 06:05:01;;;;;;;22.92;5.80;;;11.10;99.90;;;;;;5012191;28;20401;-70
2023/05/26 06:07:27;;;;;;;17.33;4.13;;;11.10;99.90;;;;;;5012038;28;20034;-70
2023/05/26 06:09:52;;;;;;;27.48;5.13;;;11.10;99.90;;;;;;5011771;28;20034;-70
2023/05/26 06:12:18;;;;;;;23.92;4.60;;;11.20;99.90;;;;;;5012246;28;20042;-70
2023/05/26 06:14:43;;;;;;;27.23;5.32;;;11.30;99.90;;;;;;5012045;28;20048;-70
2023/05/26 06:17:09;;;;;;;22.48;4.43;;;11.40;99.90;;;;;;5012021;28;20444;-70
2023/05/26 06:19:35;;;;;;;18.33;4.60;;;11.40;99.90;;;;;;5011841;28;20040;-69
2023/05/26 06:22:00;;;;;;;14.18;4.22;;;11.40;99.90;;;;;;5012010;28;20096;-69
2023/05/26 06:24:26;;;;;;;21.10;4.40;;;11.70;99.90;;;;;;5011701;28;20500;-68
2023/05/26 06:26:51;;;;;;;22.00;4.82;;;11.60;99.90;;;;;;5010496;28;20052;-68
2023/05/26 06:29:17;;;;;;;19.60;5.63;;;11.60;99.90;;;;;;4994360;28;20410;-68
2023/05/26 06:31:43;;;;;;;18.38;3.78;;;11.80;99.90;;;;;;5012065;28;20557;-68
2023/05/26 06:34:09;;;;;;;24.25;4.00;;;12.10;99.90;;;;;;5011924;28;20037;-68
2023/05/26 06:36:35;;;;;;;16.35;4.18;;;12.50;99.90;;;;;;5011808;28;20048;-70
2023/05/26 06:39:01;;;;;;;23.48;4.65;;;12.80;99.90;;;;;;5011594;28;20682;-68
2023/05/26 06:41:27;;;;;;;20.58;4.22;;;13.30;99.90;;;;;;5015404;28;20045;-68
2023/05/26 06:43:53;;;;;;;19.17;4.78;;;13.60;99.90;;;;;;5015852;28;20081;-68
2023/05/26 06:46:18;;;;;;;20.05;3.90;;;14.00;99.90;;;;;;5015661;28;20054;-68
2023/05/26 06:48:44;;;;;;;20.27;4.60;;;14.50;99.90;;;;;;5015658;28;20041;-70
2023/05/26 06:51:10;;;;;;;16.08;3.38;;;14.60;99.90;;;;;;5015688;28;20030;-68
2023/05/26 06:53:37;;;;;;;15.05;3.00;;;14.70;99.90;;;;;;5013784;28;20042;-68
2023/05/26 06:56:03;;;;;;;18.77;4.18;;;14.60;99.70;;;;;;5015305;28;20042;-68
2023/05/26 06:58:28;;;;;;;19.00;4.03;;;14.90;99.70;;;;;;5015174;28;21336;-69
2023/05/26 07:01:02;;;;;;;19.17;4.60;;;14.90;98.70;;;;;;4995989;28;20049;-69
2023/05/26 07:03:29;;;;;;;20.77;3.67;;;14.80;95.80;;;;;;4995827;28;20042;-69
2023/05/26 07:05:55;;;;;;;9.43;2.85;;;15.00;96.00;;;;;;4995814;28;20049;-69
2023/05/26 07:08:21;;;;;;;17.13;3.80;;;14.70;94.40;;;;;;4978158;28;20038;-68
2023/05/26 07:10:46;;;;;;;12.05;3.30;;;14.80;93.60;;;;;;4994554;28;20034;-69
2023/05/26 07:13:13;;;;;;;20.17;3.30;;;15.00;92.70;;;;;;4995869;28;20046;-69
2023/05/26 07:15:39;;;;;;;20.13;3.70;;;14.80;92.00;;;;;;4994656;28;20371;-69
2023/05/26 07:18:05;;;;;;;9.23;3.10;;;15.00;92.50;;;;;;4995522;28;20097;-69
2023/05/26 07:20:31;;;;;;;10.15;3.03;;;15.50;91.90;;;;;;4995477;28;20089;-68
2023/05/26 07:22:56;;;;;;;13.57;3.88;;;15.50;90.00;;;;;;4994430;28;20490;-69
2023/05/26 07:25:22;;;;;;;10.00;3.30;;;15.50;84.80;;;;;;4995408;28;20130;-69
2023/05/26 07:27:47;;;;;;;19.48;4.53;;;15.50;83.80;;;;;;5007846;28;20049;-68
2023/05/26 07:30:13;;;;;;;12.10;3.58;;;15.60;83.70;;;;;;5014199;28;20038;-68
2023/05/26 07:32:38;;;;;;;15.50;3.20;;;15.50;80.80;;;;;;5014310;28;20033;-69
2023/05/26 07:35:04;;;;;;;12.70;4.00;;;15.50;81.20;;;;;;5014697;28;20441;-68
2023/05/26 07:37:30;;;;;;;7.85;2.70;;;15.60;81.20;;;;;;5015022;28;20441;-69
2023/05/26 07:39:56;;;;;;;14.18;3.90;;;15.90;80.50;;;;;;5014806;28;20034;-69
2023/05/26 07:42:21;;;;;;;10.48;3.22;;;15.80;78.00;;;;;;5014929;28;20041;-69
2023/05/26 07:44:47;;;;;;;16.80;4.45;;;15.90;79.30;;;;;;5014705;28;20042;-69
2023/05/26 07:47:13;;;;;;;15.85;4.38;;;16.10;79.80;;;;;;5014661;28;20041;-69
2023/05/26 07:49:38;;;;;;;15.20;4.03;;;16.10;78.60;;;;;;5014376;28;20056;-69
2023/05/26 07:52:04;;;;;;;14.32;4.15;;;16.10;79.10;;;;;;5014123;28;20038;-68
2023/05/26 07:54:30;;;;;;;11.15;3.08;;;16.30;78.20;;;;;;5014768;28;20034;-69
2023/05/26 07:56:55;;;;;;;20.40;4.38;;;16.20;78.00;;;;;;5014500;28;20034;-68
2023/05/26 07:59:21;;;;;;;12.40;3.42;;;16.10;77.50;;;;;;5014407;28;20042;-67
2023/05/26 08:01:46;;;;;;;11.18;3.20;;;16.20;76.00;;;;;;5014520;28;20095;-68
2023/05/26 08:04:12;;;;;;;13.75;3.85;;;15.90;75.90;;;;;;5014263;28;20125;-68
2023/05/26 08:06:38;;;;;;;13.13;3.13;;;16.10;75.50;;;;;;5014494;28;20041;-69
2023/05/26 08:09:03;;;;;;;12.77;3.90;;;16.30;75.60;;;;;;5014387;28;20533;-69
2023/05/26 08:11:29;;;;;;;14.73;2.70;;;16.40;72.90;;;;;;5014107;28;20406;-69
2023/05/26 08:13:55;;;;;;;13.32;3.22;;;16.40;72.80;;;;;;5014260;28;20117;-69
2023/05/26 08:16:20;;;;;;;11.23;3.25;;;16.50;72.40;;;;;;5014144;28;20437;-69
2023/05/26 08:18:46;;;;;;;10.40;2.83;;;16.50;73.10;;;;;;5013848;28;20089;-69
2023/05/26 08:21:12;;;;;;;10.38;3.53;;;16.70;74.00;;;;;;5013957;28;20049;-70
2023/05/26 08:23:37;;;;;;;13.70;3.67;;;16.70;72.60;;;;;;5014148;28;20041;-69
2023/05/26 08:26:03;;;;;;;12.00;3.75;;;17.00;72.70;;;;;;5012797;28;20096;-69
2023/05/26 08:28:29;;;;;;;13.43;3.35;;;16.90;71.90;;;;;;5012609;28;20137;-69
2023/05/26 08:30:55;;;;;;;8.77;3.25;;;17.10;71.80;;;;;;5013285;28;20041;-69
2023/05/26 08:33:20;;;;;;;10.07;2.60;;;17.20;71.50;;;;;;5013714;28;20470;-69
2023/05/26 08:35:46;;;;;;;14.65;3.33;;;17.20;71.60;;;;;;5013817;28;20069;-69
2023/05/26 08:38:11;;;;;;;15.80;3.95;;;17.30;71.40;;;;;;5013705;28;20084;-69
2023/05/26 08:40:37;;;;;;;11.63;4.35;;;17.30;70.70;;;;;;5013844;28;20619;-69
2023/05/26 08:43:07;;;;;;;10.00;2.97;;;17.40;68.40;;;;;;5013796;28;20641;-69
2023/05/26 08:45:33;;;;;;;10.43;3.20;;;17.10;68.20;;;;;;5013641;28;20038;-69
2023/05/26 08:48:01;;;;;;;10.35;3.42;;;17.00;69.50;;;;;;5013370;28;20121;-69
2023/05/26 08:50:30;;;;;;;11.60;3.03;;;17.00;70.00;;;;;;5013700;28;20061;-69
2023/05/26 08:52:56;;;;;;;11.27;3.40;;;17.50;69.60;;;;;;5028817;28;20042;-69
2023/05/26 08:55:22;;;;;;;10.45;3.85;;;17.10;68.90;;;;;;5013398;28;20046;-69
2023/05/26 08:57:48;;;;;;;13.57;3.45;;;17.00;69.40;;;;;;5013097;28;20053;-69
2023/05/26 09:00:16;;;;;;;10.35;3.10;;;17.30;70.30;;;;;;5012329;28;20553;-69
2023/05/26 09:02:42;;;;;;;15.38;3.15;;;17.00;68.60;;;;;;5012939;28;20549;-69
2023/05/26 09:05:08;;;;;;;12.20;3.70;;;16.70;69.20;;;;;;5010657;28;20037;-69
2023/05/26 09:07:34;;;;;;;11.48;3.00;;;16.90;68.00;;;;;;5012164;28;20655;-70
2023/05/26 09:10:23;;;;;;;11.93;3.30;;;17.20;66.60;;;;;;5012496;28;20112;-70
2023/05/26 09:12:49;;;;;;;14.07;3.00;;;17.40;67.30;;;;;;5010572;28;20053;-69
2023/05/26 09:15:21;;;;;;;10.13;3.10;;;17.10;66.50;;;;;;5011776;28;20042;-69
2023/05/26 09:17:48;;;;;;;8.05;2.58;;;17.10;66.90;;;;;;5012921;28;20041;-70
2023/05/26 09:20:14;;;;;;;11.05;2.85;;;16.90;66.70;;;;;;5012988;28;20045;-69
2023/05/26 09:22:39;;;;;;;14.88;3.22;;;17.00;67.10;;;;;;4995290;28;20042;-69
2023/05/26 09:25:05;;;;;;;10.10;2.45;;;16.90;68.20;;;;;;5012837;28;20034;-68
2023/05/26 09:27:31;;;;;;;11.27;2.75;;;16.90;67.40;;;;;;5012515;28;20041;-72
2023/05/26 09:30:00;;;;;;;14.73;3.65;;;16.80;68.10;;;;;;5012465;28;20036;-72
2023/05/26 09:32:27;;;;;;;13.15;2.67;;;17.10;68.00;;;;;;5011796;28;20026;-72
2023/05/26 09:34:59;;;;;;;10.70;3.40;;;16.70;68.80;;;;;;5012843;28;20052;-72
2023/05/26 09:37:28;;;;;;;10.32;2.67;;;16.70;69.60;;;;;;5011389;28;20513;-72
2023/05/26 09:39:54;;;;;;;12.35;3.17;;;16.90;70.40;;;;;;5011308;28;20046;-73
2023/05/26 09:42:19;;;;;;;7.53;2.47;;;16.80;69.70;;;;;;5012479;28;20552;-72
2023/05/26 09:44:50;;;;;;;10.90;3.05;;;16.80;69.80;;;;;;5012707;28;20042;-73
2023/05/26 09:47:22;;;;;;;10.35;2.95;;;16.60;68.50;;;;;;5011152;28;20092;-72
2023/05/26 09:49:48;;;;;;;12.05;3.03;;;16.50;69.20;;;;;;5012317;28;20046;-72
2023/05/26 09:52:13;;;;;;;15.55;4.13;;;16.30;70.00;;;;;;5011389;28;20034;-72
2023/05/26 09:54:39;;;;;;;11.98;3.55;;;16.70;70.40;;;;;;5012283;28;20517;-72
2023/05/26 09:57:10;;;;;;;20.52;3.40;;;17.00;69.30;;;;;;5007816;28;20041;-74
2023/05/26 09:59:38;;;;;;;17.73;3.92;;;16.70;69.50;;;;;;4994239;28;20049;-75
2023/05/26 10:02:19;;;;;;;19.67;3.78;;;16.90;71.10;;;;;;4994999;28;20409;-75
2023/05/26 10:04:46;;;;;;;12.32;3.17;;;16.30;69.10;;;;;;5011179;28;20042;-76
2023/05/26 10:07:12;;;;;;;13.35;3.20;;;16.30;70.20;;;;;;5010295;28;20068;-76
2023/05/26 10:09:40;;;;;;;11.38;3.42;;;16.30;70.90;;;;;;5010343;28;20049;-75
2023/05/26 10:12:07;;;;;;;12.45;4.30;;;16.50;70.00;;;;;;5012311;28;20067;-75
2023/05/26 10:14:35;;;;;;;11.73;3.40;;;16.70;69.70;;;;;;5009623;28;20072;-75
2023/05/26 10:17:03;;;;;;;12.48;2.83;;;16.60;68.20;;;;;;5010451;28;20056;-75
2023/05/26 10:19:29;;;;;;;12.52;4.03;;;16.60;70.50;;;;;;5011339;28;20138;-75
2023/05/26 10:22:00;;;;;;;11.93;3.13;;;16.40;72.00;;;;;;5010415;28;20049;-74
2023/05/26 10:24:40;;;;;;;13.23;3.75;;;16.30;72.50;;;;;;5011969;28;20540;-73
2023/05/26 10:27:15;;;;;;;11.25;3.08;;;16.20;70.90;;;;;;5010499;28;20056;-74
2023/05/26 10:30:00;;;;;;;9.90;2.80;;;15.80;72.60;;;;;;5010386;28;20580;-73
2023/05/26 10:32:49;;;;;;;15.27;3.42;;;16.20;73.30;;;;;;5011232;28;20113;-72
2023/05/26 10:35:32;;;;;;;12.13;2.90;;;16.50;71.80;;;;;;5010968;28;20044;-73
2023/05/26 10:38:11;;;;;;;14.60;3.90;;;16.30;73.50;;;;;;5010326;28;20081;-73
2023/05/26 10:40:42;;;;;;;7.75;2.95;;;16.10;73.90;;;;;;5010013;28;20088;-73
2023/05/26 10:43:13;;;;;;;10.07;2.97;;;16.10;74.20;;;;;;5011618;28;20091;-72
2023/05/26 10:45:50;;;;;;;8.07;3.03;;;16.10;75.10;;;;;;5011592;28;20038;-72
2023/05/26 10:48:17;;;;;;;12.68;3.70;;;16.10;75.20;;;;;;5009322;28;20513;-72
2023/05/26 10:51:03;;;;;;;14.73;3.67;;;16.30;73.70;;;;;;5009752;28;20712;-72
2023/05/26 10:53:56;;;;;;;14.43;3.58;;;15.90;72.10;;;;;;5011314;28;20049;-72
2023/05/26 10:56:48;;;;;;;15.10;3.60;;;16.20;73.80;;;;;;5009783;28;20061;-73
2023/05/26 10:59:31;;;;;;;13.35;3.25;;;16.20;72.80;;;;;;5003085;28;20103;-73
2023/05/26 11:02:04;;;;;;;15.75;4.40;;;16.20;71.40;;;;;;5011659;28;20038;-73
2023/05/26 11:04:44;;;;;;;14.90;3.63;;;16.20;71.60;;;;;;5010393;28;20108;-72
2023/05/26 11:07:23;;;;;;;11.90;3.05;;;16.10;71.40;;;;;;5008808;28;20037;-72
2023/05/26 11:10:02;;;;;;;10.88;2.80;;;16.10;72.20;;;;;;5008793;28;20100;-73
2023/05/26 11:12:49;;;;;;;11.52;2.92;;;16.40;72.40;;;;;;5009619;28;20133;-73
2023/05/26 11:15:27;;;;;;;11.57;3.10;;;16.10;70.90;;;;;;5011532;28;20099;-73
2023/05/26 11:17:59;;;;;;;15.65;3.42;;;16.20;70.50;;;;;;5009975;28;20061;-73
2023/05/26 11:20:25;;;;;;;14.27;3.10;;;16.20;70.80;;;;;;5011575;28;20117;-73
2023/05/26 11:22:52;;;;;;;11.25;3.55;;;16.10;71.30;;;;;;5010555;28;20041;-73
2023/05/26 11:25:18;;;;;;;9.82;3.00;;;16.10;72.20;;;;;;5011182;28;20104;-73
2023/05/26 11:27:50;;;;;;;15.65;3.70;;;16.30;71.80;;;;;;5012099;28;20511;-74
2023/05/26 11:30:18;;;;;;;14.95;3.47;;;16.40;72.20;;;;;;5013636;28;20038;-72
2023/05/26 11:32:53;;;;;;;15.73;3.45;;;16.30;73.10;;;;;;4997226;28;20046;-74
2023/05/26 11:35:22;;;;;;;12.30;3.65;;;16.40;74.30;;;;;;5014704;28;20052;-73
2023/05/26 11:37:48;;;;;;;15.00;3.90;;;16.50;76.40;;;;;;5013565;28;20253;-72
2023/05/26 11:40:14;;;;;;;21.25;3.53;;;16.20;76.60;;;;;;5013641;28;20041;-72
2023/05/26 11:42:43;;;;;;;14.35;3.08;;;16.00;77.50;;;;;;5013142;28;20088;-74
2023/05/26 11:45:09;;;;;;;17.35;3.88;;;16.00;78.00;;;;;;5029840;28;20104;-73
2023/05/26 11:47:35;;;;;;;15.48;3.83;;;16.00;80.00;;;;;;5014836;28;20092;-73
2023/05/26 11:50:08;;;;;;;15.13;4.38;;;16.00;81.10;;;;;;5012962;28;20429;-73
2023/05/26 11:52:40;;;;;;;16.13;3.80;;;16.10;79.80;;;;;;5013795;28;20514;-73
2023/05/26 11:55:06;;;;;;;13.60;4.97;;;16.40;79.70;;;;;;5014174;28;20042;-76
2023/05/26 11:57:34;;;;;;;21.65;5.10;;;16.70;80.60;;;;;;5012792;28;20034;-75
2023/05/26 12:00:05;;;;;;;13.45;4.20;;;16.80;79.90;;;;;;5012709;28;20069;-76
2023/05/26 12:02:31;;;;;;;16.70;4.40;;;16.70;78.20;;;;;;4996723;28;20509;-76
2023/05/26 12:04:56;;;;;;;15.05;4.15;;;16.50;78.60;;;;;;4996748;28;20042;-76
2023/05/26 12:07:27;;;;;;;20.63;4.18;;;16.40;77.60;;;;;;5014317;28;20038;-76
2023/05/26 12:10:06;;;;;;;16.65;4.60;;;16.10;76.80;;;;;;5012333;28;20041;-76
2023/05/26 12:12:46;;;;;;;15.77;3.78;;;16.10;78.70;;;;;;5012167;28;20486;-75
2023/05/26 12:15:12;;;;;;;18.80;4.40;;;15.40;79.40;;;;;;5013413;28;20088;-76
2023/05/26 12:17:37;;;;;;;24.20;4.72;;;15.70;81.70;;;;;;5009078;28;20128;-77
2023/05/26 12:20:05;;;;;;;15.05;4.00;;;15.80;80.40;;;;;;5003782;28;20053;-76
2023/05/26 12:22:30;;;;;;;28.98;5.07;;;15.80;80.30;;;;;;5012076;28;20050;-75
2023/05/26 12:25:00;;;;;;;18.17;4.00;;;16.00;79.10;;;;;;5012241;28;20045;-76
2023/05/26 12:27:36;;;;;;;13.02;3.50;;;16.00;77.40;;;;;;5011671;28;20034;-76
2023/05/26 12:30:20;;;;;;;16.30;3.55;;;15.90;77.60;;;;;;5012724;28;20049;-78
2023/05/26 12:32:46;;;;;;;40.53;7.35;;;16.10;76.20;;;;;;5012922;28;20038;-77
2023/05/26 12:35:13;;;;;;;20.02;4.65;;;16.40;74.10;;;;;;5012746;28;20073;-76
2023/05/26 12:37:38;;;;;;;16.70;4.13;;;16.30;72.50;;;;;;5013707;28;20049;-76
2023/05/26 12:40:05;;;;;;;12.20;3.97;;;16.30;75.10;;;;;;5012486;28;20383;-77
2023/05/26 12:42:31;;;;;;;12.48;3.05;;;16.40;74.90;;;;;;5014048;28;20073;-76